Time;durP1;ratioP1;P1;durP2;ratioP2;P2;SDS_P1;SDS_P2;PMS_P1;PMS_P2;Temp;Humidity;BMP_temperature;BMP_pressure;BME280_temperature;BME280_humidity;BME280_pressure;Samples;Min_cycle;Max_cycle;Signal;HPM_P1;HPM_P2
2022/10/13 00:01:27;;;;;;;26.63;15.35;;;;;;;11.04;100.00;101856.28;5337743;27;20027;-81
2022/10/13 00:03:58;;;;;;;22.45;14.05;;;;;;;11.04;100.00;101858.94;5338612;27;20707;-81
2022/10/13 00:06:30;;;;;;;23.00;14.98;;;;;;;11.04;100.00;101865.13;5339289;27;20038;-80
2022/10/13 00:09:02;;;;;;;20.98;14.15;;;;;;;11.01;100.00;101860.03;5339105;27;20409;-80
2022/10/13 00:11:33;;;;;;;23.75;13.43;;;;;;;10.98;100.00;101846.94;5338821;27;20118;-81
2022/10/13 00:14:05;;;;;;;21.50;13.68;;;;;;;10.97;100.00;101848.75;5339050;27;20345;-80
2022/10/13 00:16:36;;;;;;;25.30;15.20;;;;;;;10.95;100.00;101841.81;5338227;27;20095;-80
2022/10/13 00:19:07;;;;;;;19.38;14.13;;;;;;;10.91;100.00;101835.88;5338973;27;20066;-80
2022/10/13 00:21:39;;;;;;;20.95;14.55;;;;;;;10.87;100.00;101834.44;5339825;27;20019;-80
2022/10/13 00:24:10;;;;;;;22.15;13.98;;;;;;;10.91;100.00;101843.88;5339857;27;20085;-80
2022/10/13 00:26:42;;;;;;;21.52;13.68;;;;;;;10.86;100.00;101829.22;5338291;27;20019;-81
2022/10/13 00:29:13;;;;;;;25.55;14.13;;;;;;;10.84;100.00;101837.34;5339120;27;20038;-80
2022/10/13 00:31:44;;;;;;;20.13;14.45;;;;;;;10.83;100.00;101832.94;5338027;27;20035;-80
2022/10/13 00:34:15;;;;;;;23.52;14.40;;;;;;;10.78;100.00;101827.13;5319224;27;20031;-81
2022/10/13 00:36:47;;;;;;;24.10;13.82;;;;;;;10.81;100.00;101826.88;5318635;27;20040;-80
2022/10/13 00:39:18;;;;;;;22.17;13.63;;;;;;;10.89;100.00;101834.31;5337976;27;20024;-80
2022/10/13 00:41:49;;;;;;;23.73;14.07;;;;;;;10.90;100.00;101830.66;5338070;27;20427;-81
2022/10/13 00:44:51;;;;;;;22.77;13.38;;;;;;;10.92;100.00;101834.91;5335659;27;20020;-80
2022/10/13 00:47:25;;;;;;;23.73;14.23;;;;;;;10.90;100.00;101834.16;5333139;27;20055;-80
2022/10/13 00:49:57;;;;;;;22.10;13.85;;;;;;;10.99;100.00;101832.59;5338738;27;20024;-81
2022/10/13 00:52:30;;;;;;;21.52;14.93;;;;;;;10.98;100.00;101833.59;5338056;27;20031;-80
2022/10/13 00:55:03;;;;;;;19.48;13.23;;;;;;;11.04;100.00;101834.91;5337217;27;20020;-80
2022/10/13 00:57:37;;;;;;;21.45;14.75;;;;;;;11.04;100.00;101829.56;5336823;27;20039;-81
2022/10/13 01:00:09;;;;;;;20.20;13.35;;;;;;;11.05;100.00;101826.78;5338939;27;20056;-81
2022/10/13 01:02:40;;;;;;;20.73;13.93;;;;;;;11.10;100.00;101831.78;5338249;27;20120;-81
2022/10/13 01:05:12;;;;;;;22.23;13.27;;;;;;;10.99;100.00;101824.59;5323524;27;20031;-80
2022/10/13 01:07:47;;;;;;;22.50;13.95;;;;;;;11.01;100.00;101835.16;5341183;27;21002;-81
2022/10/13 01:10:55;;;;;;;24.15;13.65;;;;;;;10.97;100.00;101818.53;5339738;27;20493;-80
2022/10/13 01:13:41;;;;;;;23.25;14.80;;;;;;;11.03;100.00;101827.88;5340372;27;20137;-80
2022/10/13 01:16:47;;;;;;;27.17;15.07;;;;;;;11.01;100.00;101819.13;5340627;27;20031;-81
2022/10/13 01:19:28;;;;;;;23.55;13.95;;;;;;;11.01;100.00;101822.66;5340289;27;20027;-80
2022/10/13 01:22:19;;;;;;;26.63;13.73;;;;;;;11.00;100.00;101820.13;5323155;27;20027;-80
2022/10/13 01:25:07;;;;;;;27.17;13.45;;;;;;;10.98;100.00;101830.91;5343641;27;20385;-80
2022/10/13 01:28:00;;;;;;;26.85;13.70;;;;;;;10.98;100.00;101829.09;5341473;27;21668;-80
2022/10/13 01:30:36;;;;;;;26.08;14.05;;;;;;;11.00;100.00;101820.13;5341252;27;20386;-81
2022/10/13 01:33:29;;;;;;;22.48;13.90;;;;;;;11.05;100.00;101829.47;5342244;27;20051;-80
2022/10/13 01:36:11;;;;;;;26.17;14.60;;;;;;;11.00;100.00;101823.63;5341095;27;20085;-80
2022/10/13 01:39:06;;;;;;;21.77;14.27;;;;;;;10.98;100.00;101831.75;5341969;27;20023;-80
2022/10/13 01:41:41;;;;;;;27.52;13.80;;;;;;;11.06;100.00;101816.94;5326545;27;20027;-81
2022/10/13 01:44:19;;;;;;;24.13;14.02;;;;;;;11.06;100.00;101819.63;5339438;27;20047;-81
2022/10/13 01:46:51;;;;;;;25.25;14.23;;;;;;;11.09;100.00;101811.38;5342932;27;20034;-80
2022/10/13 01:49:27;;;;;;;22.42;13.82;;;;;;;11.02;100.00;101805.66;5322397;27;20030;-80
2022/10/13 01:52:02;;;;;;;21.98;14.75;;;;;;;11.05;100.00;101804.59;5342674;27;20587;-81
2022/10/13 01:54:33;;;;;;;23.45;13.23;;;;;;;11.09;100.00;101814.88;5340341;27;20504;-80
2022/10/13 01:57:32;;;;;;;21.88;13.63;;;;;;;11.08;100.00;101807.00;5341229;27;20123;-81
2022/10/13 02:00:08;;;;;;;26.52;14.52;;;;;;;11.08;100.00;101807.84;5341249;27;20117;-80
2022/10/13 02:03:04;;;;;;;28.10;14.65;;;;;;;11.08;100.00;101796.31;5340285;27;20039;-80
2022/10/13 02:05:47;;;;;;;22.35;13.90;;;;;;;11.09;100.00;101793.53;5339147;27;20035;-80
2022/10/13 02:08:40;;;;;;;22.60;14.27;;;;;;;11.06;100.00;101783.09;5341941;27;20016;-80
2022/10/13 02:11:16;;;;;;;26.90;14.73;;;;;;;11.10;100.00;101787.22;5342123;27;20032;-80
2022/10/13 02:14:08;;;;;;;24.90;13.43;;;;;;;11.06;100.00;101784.91;5346084;27;20051;-80
2022/10/13 02:16:43;;;;;;;24.25;15.13;;;;;;;11.14;100.00;101793.16;5342741;27;20394;-80
2022/10/13 02:19:17;;;;;;;21.85;14.77;;;;;;;11.16;100.00;101783.19;5346388;27;20037;-80
2022/10/13 02:21:52;;;;;;;21.38;14.18;;;;;;;11.17;100.00;101774.22;5328341;27;20529;-81
2022/10/13 02:24:23;;;;;;;20.10;12.75;;;;;;;11.15;100.00;101771.69;5344116;27;20038;-80
2022/10/13 02:26:55;;;;;;;20.33;13.65;;;;;;;11.13;100.00;101768.28;5341632;27;20016;-80
2022/10/13 02:29:26;;;;;;;22.00;13.77;;;;;;;11.05;100.00;101765.38;5340006;27;20059;-80
2022/10/13 02:31:58;;;;;;;22.42;13.80;;;;;;;11.09;100.00;101766.81;5340960;27;20023;-80
2022/10/13 02:34:29;;;;;;;21.33;13.25;;;;;;;11.14;100.00;101764.63;5338725;27;20023;-80
2022/10/13 02:37:00;;;;;;;24.35;14.65;;;;;;;11.11;100.00;101762.19;5342048;27;20389;-80
2022/10/13 02:39:32;;;;;;;21.45;13.07;;;;;;;11.16;100.00;101773.38;5340745;27;20150;-80
2022/10/13 02:42:04;;;;;;;23.05;13.48;;;;;;;11.23;100.00;101764.88;5319640;27;20366;-80
2022/10/13 02:44:36;;;;;;;22.15;13.23;;;;;;;11.26;100.00;101770.81;5338686;27;20053;-80
2022/10/13 02:47:07;;;;;;;19.63;12.85;;;;;;;11.25;100.00;101771.78;5323220;27;20035;-80
2022/10/13 02:49:38;;;;;;;23.33;13.32;;;;;;;11.27;100.00;101759.16;5340492;27;20059;-80
2022/10/13 02:52:10;;;;;;;23.88;12.60;;;;;;;11.28;100.00;101757.34;5323009;27;20031;-80
2022/10/13 02:54:41;;;;;;;20.27;12.15;;;;;;;11.31;100.00;101754.41;5322070;27;20028;-80
2022/10/13 02:57:12;;;;;;;19.77;12.43;;;;;;;11.28;100.00;101757.34;5341319;27;20078;-80
2022/10/13 02:59:44;;;;;;;18.17;12.45;;;;;;;11.25;100.00;101746.91;5338373;27;20694;-80
2022/10/13 03:02:16;;;;;;;20.40;13.50;;;;;;;11.24;100.00;101751.41;5339949;27;20050;-81
2022/10/13 03:04:48;;;;;;;20.63;12.15;;;;;;;11.25;100.00;101754.91;5323151;27;21207;-81
2022/10/13 03:07:19;;;;;;;21.45;12.23;;;;;;;11.20;100.00;101752.59;5339583;27;20485;-81
2022/10/13 03:09:51;;;;;;;20.42;12.73;;;;;;;11.26;100.00;101753.94;5322227;27;20043;-81
2022/10/13 03:12:22;;;;;;;18.23;12.55;;;;;;;11.25;100.00;101746.91;5340279;27;20532;-81
2022/10/13 03:14:53;;;;;;;21.15;12.80;;;;;;;11.21;100.00;101740.13;5321942;27;20024;-80
2022/10/13 03:17:25;;;;;;;19.95;12.93;;;;;;;11.26;100.00;101748.59;5339934;27;20066;-80
2022/10/13 03:19:57;;;;;;;17.73;11.32;;;;;;;11.26;100.00;101748.59;5341889;27;20020;-80
2022/10/13 03:22:31;;;;;;;23.38;12.10;;;;;;;11.25;100.00;101745.06;5339685;27;20026;-80
2022/10/13 03:25:03;;;;;;;18.85;11.88;;;;;;;11.24;100.00;101746.06;5339059;27;20813;-80
2022/10/13 03:27:34;;;;;;;16.65;11.88;;;;;;;11.20;100.00;101738.41;5339913;27;20382;-80
2022/10/13 03:30:07;;;;;;;17.73;11.32;;;;;;;11.25;100.00;101742.38;5340148;27;21492;-80
2022/10/13 03:32:39;;;;;;;20.05;12.20;;;;;;;11.26;100.00;101748.59;5339702;27;20027;-80
2022/10/13 03:35:10;;;;;;;21.50;13.00;;;;;;;11.30;100.00;101736.69;5340466;27;20036;-80
2022/10/13 03:37:42;;;;;;;20.05;11.65;;;;;;;11.30;100.00;101734.84;5339674;27;20036;-80
2022/10/13 03:40:13;;;;;;;18.05;12.20;;;;;;;11.32;100.00;101732.91;5341885;27;20036;-80
2022/10/13 03:42:45;;;;;;;21.70;13.02;;;;;;;11.35;100.00;101739.84;5338997;27;20489;-80
2022/10/13 03:45:16;;;;;;;18.02;12.80;;;;;;;11.39;100.00;101737.75;5321260;27;20695;-80
2022/10/13 03:47:47;;;;;;;19.23;11.68;;;;;;;11.39;100.00;101729.75;5316806;27;20028;-80
2022/10/13 03:50:19;;;;;;;16.15;11.77;;;;;;;11.39;100.00;101727.06;5340203;27;20958;-80
2022/10/13 03:52:50;;;;;;;19.00;12.18;;;;;;;11.36;100.00;101725.50;5338189;27;20053;-80
2022/10/13 03:55:21;;;;;;;18.75;13.02;;;;;;;11.36;100.00;101714.84;5339391;27;20026;-80
2022/10/13 03:57:53;;;;;;;17.00;12.07;;;;;;;11.34;100.00;101709.63;5338257;27;20051;-80
2022/10/13 04:00:24;;;;;;;17.63;12.52;;;;;;;11.39;100.00;101713.72;5340726;27;20028;-80
2022/10/13 04:02:55;;;;;;;18.48;12.35;;;;;;;11.43;100.00;101715.16;5339453;27;20016;-80
2022/10/13 04:05:26;;;;;;;18.65;12.38;;;;;;;11.41;100.00;101709.09;5338448;27;20030;-80
2022/10/13 04:07:58;;;;;;;20.83;11.80;;;;;;;11.44;100.00;101707.00;5339037;27;20028;-80
2022/10/13 04:10:29;;;;;;;20.45;12.65;;;;;;;11.50;100.00;101705.66;5339661;27;20019;-80
2022/10/13 04:13:01;;;;;;;16.80;11.95;;;;;;;11.47;100.00;101698.75;5338624;27;20489;-80
2022/10/13 04:15:39;;;;;;;19.63;12.38;;;;;;;11.54;100.00;101710.63;5338390;27;20470;-80
2022/10/13 04:18:10;;;;;;;16.77;13.10;;;;;;;11.51;100.00;101699.34;5337912;27;20036;-80
2022/10/13 04:20:42;;;;;;;15.80;11.25;;;;;;;11.60;100.00;101705.75;5339063;27;20101;-80
2022/10/13 04:23:13;;;;;;;18.70;12.10;;;;;;;11.51;100.00;101702.00;5336348;27;20028;-81
2022/10/13 04:25:44;;;;;;;22.60;12.55;;;;;;;11.35;100.00;101687.25;5322579;27;20906;-81
2022/10/13 04:28:15;;;;;;;21.75;13.23;;;;;;;11.25;100.00;101697.00;5337231;27;27302;-81
2022/10/13 04:30:47;;;;;;;20.55;13.10;;;;;;;11.19;100.00;101694.00;5340302;27;20132;-81
2022/10/13 04:33:18;;;;;;;22.98;13.68;;;;;;;11.14;100.00;101683.69;5336864;27;20028;-80
2022/10/13 04:35:49;;;;;;;21.05;12.80;;;;;;;11.16;100.00;101684.41;5339161;27;20028;-81
2022/10/13 04:38:21;;;;;;;21.40;13.23;;;;;;;11.21;100.00;101689.38;5336422;27;20108;-80
2022/10/13 04:40:52;;;;;;;22.95;13.68;;;;;;;11.28;100.00;101691.41;5343449;27;20499;-81
2022/10/13 04:43:23;;;;;;;19.52;11.32;;;;;;;11.34;100.00;101701.59;5321402;27;20068;-81
2022/10/13 04:46:02;;;;;;;18.67;12.23;;;;;;;11.36;100.00;101685.44;5342689;27;20027;-81
2022/10/13 04:48:33;;;;;;;22.88;13.85;;;;;;;11.38;100.00;101688.84;5341292;27;20482;-80
2022/10/13 04:51:10;;;;;;;23.52;13.20;;;;;;;11.42;100.00;101684.09;5340409;27;20039;-81
2022/10/13 04:53:41;;;;;;;;;;;;;;;11.45;100.00;101702.53;5340034;27;20016;-81
2022/10/13 04:56:16;;;;;;;19.77;12.23;;;;;;;11.44;100.00;101698.16;5344335;27;20338;-81
2022/10/13 04:58:47;;;;;;;19.75;13.05;;;;;;;11.41;100.00;101695.72;5342878;27;20401;-81
2022/10/13 05:01:21;;;;;;;23.83;13.18;;;;;;;11.43;100.00;101688.44;5343822;27;20024;-80
2022/10/13 05:03:55;;;;;;;18.88;12.43;;;;;;;11.41;100.00;101679.72;5344262;27;20536;-81
2022/10/13 05:06:30;;;;;;;19.77;12.55;;;;;;;11.41;100.00;101682.38;5342325;27;20099;-80
2022/10/13 05:09:02;;;;;;;23.08;13.10;;;;;;;11.41;100.00;101682.38;5352785;27;20027;-80
2022/10/13 05:11:34;;;;;;;21.08;12.15;;;;;;;11.36;100.00;101690.78;5347374;27;20089;-80
2022/10/13 05:14:05;;;;;;;18.15;12.15;;;;;;;11.36;100.00;101685.44;5337588;27;20102;-80
2022/10/13 05:16:36;;;;;;;20.83;13.32;;;;;;;11.38;100.00;101686.16;5342857;27;20118;-80
2022/10/13 05:19:08;;;;;;;23.15;13.38;;;;;;;11.36;100.00;101690.78;5320915;27;20469;-80
2022/10/13 05:21:39;;;;;;;18.50;12.68;;;;;;;11.36;100.00;101685.44;5323132;27;20073;-80
2022/10/13 05:24:12;;;;;;;18.83;12.40;;;;;;;11.28;100.00;101677.22;5341711;27;20050;-80
2022/10/13 05:26:43;;;;;;;21.98;12.15;;;;;;;11.29;100.00;101693.13;5341871;27;20043;-80
2022/10/13 05:29:16;;;;;;;20.08;13.10;;;;;;;11.27;100.00;101688.84;5340877;27;20069;-80
2022/10/13 05:31:47;;;;;;;22.52;13.70;;;;;;;11.27;100.00;101691.53;5340893;27;20066;-80
2022/10/13 05:34:19;;;;;;;21.55;13.43;;;;;;;11.25;100.00;101690.81;5340491;27;20032;-80
2022/10/13 05:36:50;;;;;;;20.90;12.52;;;;;;;11.29;100.00;101690.44;5339341;27;20393;-80
2022/10/13 05:39:21;;;;;;;21.27;13.18;;;;;;;11.30;100.00;101692.13;5338775;27;20541;-80
2022/10/13 05:41:53;;;;;;;24.10;12.77;;;;;;;11.32;100.00;101692.84;5342584;27;20393;-80
2022/10/13 05:44:25;;;;;;;17.08;13.07;;;;;;;11.29;100.00;101686.91;5340103;27;20027;-80
2022/10/13 05:46:56;;;;;;;19.90;13.23;;;;;;;11.26;100.00;101677.34;5341192;27;20027;-80
2022/10/13 05:49:27;;;;;;;19.67;13.23;;;;;;;11.24;100.00;101673.94;5322019;27;20024;-80
2022/10/13 05:52:02;;;;;;;21.42;14.30;;;;;;;11.26;100.00;101680.00;5340600;27;20031;-80
2022/10/13 05:54:38;;;;;;;22.00;13.35;;;;;;;11.20;100.00;101680.50;5343986;27;20032;-80
2022/10/13 05:57:13;;;;;;;26.45;14.25;;;;;;;11.24;100.00;101687.31;5321135;27;20144;-80
2022/10/13 06:00:10;;;;;;;29.00;14.23;;;;;;;11.24;100.00;101692.66;5339510;27;20043;-80
2022/10/13 06:02:56;;;;;;;25.67;14.02;;;;;;;11.27;100.00;101694.19;5329208;27;20043;-80
2022/10/13 06:05:30;;;;;;;24.67;13.98;;;;;;;11.30;100.00;101685.94;5336585;27;20026;-80
2022/10/13 06:08:02;;;;;;;29.38;13.90;;;;;;;11.32;100.00;101684.81;5340379;27;20016;-80
2022/10/13 06:10:33;;;;;;;22.48;13.70;;;;;;;11.27;100.00;101665.69;5325207;27;20370;-80
2022/10/13 06:13:04;;;;;;;20.63;14.18;;;;;;;11.34;100.00;101671.34;5339573;27;20050;-80
2022/10/13 06:15:35;;;;;;;20.98;14.02;;;;;;;11.31;100.00;101667.13;5328229;27;20035;-80
2022/10/13 06:18:08;;;;;;;20.67;13.52;;;;;;;11.37;100.00;101668.44;5341769;27;20032;-80
2022/10/13 06:20:39;;;;;;;20.60;12.77;;;;;;;11.39;100.00;101669.16;5341204;27;20028;-80
2022/10/13 06:23:11;;;;;;;23.75;13.88;;;;;;;11.40;100.00;101649.50;5326961;27;20016;-80
2022/10/13 06:25:50;;;;;;;21.13;13.27;;;;;;;11.45;100.00;101654.47;5347664;27;20055;-80
2022/10/13 06:28:21;;;;;;;26.98;14.32;;;;;;;11.43;100.00;101664.41;5339754;27;20078;-81
2022/10/13 06:30:55;;;;;;;24.38;14.10;;;;;;;11.47;100.00;101669.38;5335236;27;20032;-82
2022/10/13 06:33:26;;;;;;;25.33;13.90;;;;;;;11.47;100.00;101669.38;5321931;27;20027;-81
2022/10/13 06:36:04;;;;;;;23.40;13.85;;;;;;;11.48;100.00;101675.53;5317656;27;20331;-81
2022/10/13 06:38:35;;;;;;;20.70;13.38;;;;;;;11.52;100.00;101671.66;5337036;27;20126;-81
2022/10/13 06:41:06;;;;;;;21.15;12.95;;;;;;;11.53;100.00;101643.94;5316201;27;20106;-82
2022/10/13 06:43:38;;;;;;;22.35;13.40;;;;;;;11.63;100.00;101657.41;5307965;28;20024;-81
2022/10/13 06:46:10;;;;;;;22.63;13.75;;;;;;;11.60;100.00;101655.81;5308162;28;20048;-81
2022/10/13 06:48:41;;;;;;;24.65;13.45;;;;;;;11.62;100.00;101664.53;5324276;28;20063;-81
2022/10/13 06:51:13;;;;;;;29.88;13.68;;;;;;;11.69;100.00;101670.22;5307698;28;20081;-81
2022/10/13 06:53:44;;;;;;;19.75;12.23;;;;;;;11.75;100.00;101667.03;5323370;27;20114;-80
2022/10/13 06:56:15;;;;;;;20.45;12.70;;;;;;;11.72;100.00;101648.59;5328949;27;20059;-81
2022/10/13 06:58:47;;;;;;;22.20;12.85;;;;;;;11.80;100.00;101648.78;5347742;27;20026;-81
2022/10/13 07:01:18;;;;;;;20.80;12.98;;;;;;;11.86;100.00;101666.13;5347061;27;20028;-80
2022/10/13 07:03:50;;;;;;;21.58;12.82;;;;;;;11.84;100.00;101658.25;5347085;27;20019;-80
2022/10/13 07:06:22;;;;;;;21.90;12.68;;;;;;;11.86;100.00;101650.09;5346243;27;20470;-79
2022/10/13 07:08:53;;;;;;;20.98;11.63;;;;;;;11.84;100.00;101647.53;5347309;27;20023;-80
2022/10/13 07:11:25;;;;;;;21.52;12.70;;;;;;;11.90;100.00;101655.09;5328318;27;20015;-80
2022/10/13 07:13:56;;;;;;;21.05;11.95;;;;;;;11.91;100.00;101661.28;5346679;27;20063;-78
2022/10/13 07:16:28;;;;;;;18.00;12.70;;;;;;;11.91;100.00;101661.28;5347063;27;20493;-78
2022/10/13 07:18:59;;;;;;;20.50;13.23;;;;;;;11.97;100.00;101659.91;5347132;27;20489;-78
2022/10/13 07:21:30;;;;;;;25.35;13.75;;;;;;;11.98;100.00;101667.78;5339879;27;20861;-78
2022/10/13 07:24:02;;;;;;;22.77;13.35;;;;;;;12.05;100.00;101662.75;5343900;27;20408;-78
2022/10/13 07:26:35;;;;;;;20.30;13.48;;;;;;;12.12;100.00;101655.91;5347194;27;20137;-78
2022/10/13 07:29:07;;;;;;;22.40;13.18;;;;;;;12.15;100.00;101661.00;5346442;27;20098;-78
2022/10/13 07:31:38;;;;;;;23.15;13.85;;;;;;;12.21;100.00;101664.97;5346870;27;20149;-78
2022/10/13 07:34:09;;;;;;;22.00;12.98;;;;;;;12.22;100.00;101655.94;5343806;27;20020;-78
2022/10/13 07:36:41;;;;;;;23.95;13.60;;;;;;;12.33;100.00;101669.25;5342163;27;20028;-78
2022/10/13 07:39:12;;;;;;;28.77;13.75;;;;;;;12.28;100.00;101671.47;5343183;27;20819;-77
2022/10/13 07:41:44;;;;;;;24.65;14.43;;;;;;;12.29;100.00;101657.97;5328115;27;20066;-77
2022/10/13 07:44:15;;;;;;;25.08;15.10;;;;;;;12.36;100.00;101665.44;5327750;27;20024;-78
2022/10/13 07:46:46;;;;;;;23.50;14.70;;;;;;;12.36;100.00;101654.75;5328345;27;20103;-78
2022/10/13 07:49:17;;;;;;;22.40;13.38;;;;;;;12.48;100.00;101661.69;5345287;27;20072;-77
2022/10/13 07:51:49;;;;;;;25.88;14.10;;;;;;;12.59;100.00;101664.28;5347218;27;20028;-79
2022/10/13 07:54:20;;;;;;;24.90;14.15;;;;;;;12.68;100.00;101651.91;5327374;27;20120;-79
2022/10/13 07:56:53;;;;;;;21.83;14.00;;;;;;;12.83;100.00;101661.25;5325670;28;20039;-77
2022/10/13 07:59:24;;;;;;;25.48;15.15;;;;;;;12.99;100.00;101662.53;5324905;27;20023;-77
2022/10/13 08:01:56;;;;;;;22.27;13.82;;;;;;;13.07;100.00;101665.38;5346475;27;20028;-78
2022/10/13 08:04:31;;;;;;;23.00;14.98;;;;;;;13.10;100.00;101665.09;5342308;27;20035;-80
2022/10/13 08:07:04;;;;;;;22.60;13.57;;;;;;;13.05;100.00;101662.00;5332814;27;20507;-78
2022/10/13 08:09:36;;;;;;;22.50;14.80;;;;;;;13.13;100.00;101666.66;5346639;27;20456;-79
2022/10/13 08:12:07;;;;;;;17.02;12.70;;;;;;;13.20;100.00;101657.06;5345821;27;20093;-79
2022/10/13 08:14:38;;;;;;;23.98;14.15;;;;;;;13.35;100.00;101671.78;5344401;27;20068;-78
2022/10/13 08:17:10;;;;;;;25.67;14.73;;;;;;;13.38;100.00;101659.94;5346098;27;20326;-78
2022/10/13 08:19:41;;;;;;;28.38;15.25;;;;;;;13.29;100.00;101664.28;5345968;27;20045;-78
2022/10/13 08:22:13;;;;;;;23.80;14.25;;;;;;;13.34;100.00;101661.19;5345142;27;20027;-78
2022/10/13 08:24:44;;;;;;;28.30;14.77;;;;;;;13.38;100.00;101659.94;5345997;27;20023;-77
2022/10/13 08:27:21;;;;;;;21.10;13.95;;;;;;;13.53;100.00;101655.84;5345814;27;20102;-78
2022/10/13 08:29:53;;;;;;;23.58;13.60;;;;;;;13.68;100.00;101648.22;5326999;27;20458;-78
2022/10/13 08:32:24;;;;;;;21.02;13.07;;;;;;;13.89;100.00;101639.16;5345483;27;20524;-78
2022/10/13 08:34:56;;;;;;;23.70;13.73;;;;;;;14.12;100.00;101642.34;5344219;27;20020;-80
2022/10/13 08:37:27;;;;;;;18.15;12.80;;;;;;;14.08;100.00;101643.63;5335124;27;20036;-78
2022/10/13 08:39:58;;;;;;;19.67;12.70;;;;;;;13.94;100.00;101645.78;5324672;28;20012;-78
2022/10/13 08:42:30;;;;;;;20.52;13.00;;;;;;;13.98;100.00;101644.47;5324351;28;20360;-78
2022/10/13 08:45:04;;;;;;;22.02;12.98;;;;;;;13.90;100.00;101639.00;5324818;28;20107;-79
2022/10/13 08:47:46;;;;;;;19.52;13.23;;;;;;;13.89;100.00;101656.09;5323944;28;20025;-79
2022/10/13 08:50:21;;;;;;;19.85;13.73;;;;;;;13.92;100.00;101645.06;5307009;27;20103;-78
2022/10/13 08:53:00;;;;;;;25.33;12.40;;;;;;;13.98;100.00;101647.16;5338958;27;20656;-78
2022/10/13 08:55:44;;;;;;;20.77;12.82;;;;;;;14.05;100.00;101633.19;5346089;27;20030;-79
2022/10/13 08:58:31;;;;;;;22.25;11.77;;;;;;;14.18;100.00;101642.59;5346014;27;20042;-79
2022/10/13 09:01:16;;;;;;;25.30;12.35;;;;;;;14.23;100.00;101635.94;5346018;27;20400;-78
2022/10/13 09:03:51;;;;;;;20.25;12.50;;;;;;;14.14;100.00;101637.66;5345789;27;20027;-79
2022/10/13 09:06:31;;;;;;;19.80;12.57;;;;;;;14.03;100.00;101630.66;5345039;27;20457;-78
2022/10/13 09:09:09;;;;;;;23.90;12.18;;;;;;;14.05;100.00;101620.59;5345891;27;20019;-79
2022/10/13 09:11:46;;;;;;;23.30;12.65;;;;;;;14.02;100.00;101620.88;5345987;27;20020;-79
2022/10/13 09:14:26;;;;;;;22.08;11.40;;;;;;;14.00;100.00;101622.88;5326560;27;20039;-79
2022/10/13 09:17:34;;;;;;;18.35;11.73;;;;;;;14.00;100.00;101638.97;5345307;27;20039;-79
2022/10/13 09:20:16;;;;;;;17.65;11.82;;;;;;;13.88;100.00;101632.09;5237241;28;20104;-79
2022/10/13 09:23:02;;;;;;;19.38;12.23;;;;;;;13.84;100.00;101636.06;5331895;27;20028;-78
2022/10/13 09:25:42;;;;;;;25.13;12.02;;;;;;;13.75;100.00;101638.59;5347309;27;20050;-79
2022/10/13 09:28:31;;;;;;;18.20;12.23;;;;;;;13.75;100.00;101629.72;5348570;27;20405;-79
2022/10/13 09:31:16;;;;;;;21.23;13.57;;;;;;;13.78;100.00;101626.75;5349261;27;20024;-79
2022/10/13 09:33:57;;;;;;;19.52;13.05;;;;;;;13.79;100.00;101626.59;5349197;27;20019;-79
2022/10/13 09:36:30;;;;;;;19.25;12.25;;;;;;;13.87;100.00;101627.72;5346986;27;20145;-79
2022/10/13 09:39:12;;;;;;;19.58;12.73;;;;;;;13.93;100.00;101622.59;5348744;27;20127;-79
2022/10/13 09:41:44;;;;;;;29.85;14.45;;;;;;;13.84;100.00;101628.84;5348584;27;20031;-79
2022/10/13 09:44:28;;;;;;;22.00;13.82;;;;;;;13.92;100.00;101625.44;5348657;27;20466;-79
2022/10/13 09:47:02;;;;;;;22.70;14.07;;;;;;;13.84;100.00;101626.16;5348449;27;20031;-79
2022/10/13 09:49:42;;;;;;;22.33;13.48;;;;;;;13.84;100.00;101626.16;5347720;27;20023;-79
2022/10/13 09:52:18;;;;;;;23.23;14.35;;;;;;;13.59;100.00;101631.16;5329869;27;20016;-80
2022/10/13 09:54:56;;;;;;;23.70;15.85;;;;;;;13.31;100.00;101624.81;5330406;27;20020;-80
2022/10/13 09:57:44;;;;;;;26.02;15.68;;;;;;;13.10;100.00;101632.13;5346716;27;20040;-80
2022/10/13 10:00:21;;;;;;;22.80;14.82;;;;;;;13.01;100.00;101633.81;5334798;27;20019;-81
2022/10/13 10:02:58;;;;;;;26.13;16.15;;;;;;;12.82;100.00;101624.75;5349026;27;20012;-80
2022/10/13 10:05:49;;;;;;;28.80;18.48;;;;;;;12.71;100.00;101626.69;5329573;27;20107;-80
2022/10/13 10:08:49;;;;;;;22.75;15.15;;;;;;;12.62;100.00;101626.53;5348602;27;20023;-81
2022/10/13 10:11:28;;;;;;;25.70;16.98;;;;;;;12.62;100.00;101617.66;5349065;27;20020;-81
2022/10/13 10:14:14;;;;;;;27.23;17.88;;;;;;;12.55;100.00;101617.38;5348248;27;20078;-81
2022/10/13 10:16:54;;;;;;;27.08;17.73;;;;;;;12.39;100.00;101615.19;5348359;27;20036;-81
2022/10/13 10:19:40;;;;;;;31.42;18.00;;;;;;;12.39;100.00;101611.66;5348354;27;20022;-80
2022/10/13 10:22:21;;;;;;;27.63;17.85;;;;;;;12.31;100.00;101617.72;5347729;27;20043;-81
2022/10/13 10:25:17;;;;;;;24.30;17.67;;;;;;;12.23;100.00;101606.81;5348325;27;20019;-81
2022/10/13 10:27:53;;;;;;;26.55;17.55;;;;;;;12.33;100.00;101615.75;5348314;27;20035;-81
2022/10/13 10:30:25;;;;;;;31.75;18.90;;;;;;;12.34;100.00;101616.56;5348074;27;20012;-81
2022/10/13 10:33:12;;;;;;;27.33;17.45;;;;;;;12.29;100.00;101603.63;5350503;27;20028;-80
2022/10/13 10:35:48;;;;;;;27.08;18.38;;;;;;;12.35;100.00;101610.25;5353584;27;20035;-81
2022/10/13 10:38:41;;;;;;;20.85;16.52;;;;;;;12.37;100.00;101619.81;5355065;27;20027;-80
2022/10/13 10:41:24;;;;;;;29.55;18.50;;;;;;;12.48;100.00;101622.41;5335214;27;20012;-81
2022/10/13 10:44:10;;;;;;;24.13;14.68;;;;;;;12.62;100.00;101602.47;5352929;27;20022;-80
2022/10/13 10:46:46;;;;;;;30.52;19.48;;;;;;;12.77;100.00;101616.28;5336288;27;20034;-80
2022/10/13 10:49:22;;;;;;;;;;;;;;;12.76;100.00;101617.28;5353580;27;20397;-80
2022/10/13 10:51:54;;;;;;;27.05;17.85;;;;;;;12.63;100.00;101611.31;5351247;27;19920;-81
2022/10/13 10:54:40;;;;;;;26.08;16.65;;;;;;;12.74;100.00;101615.72;5330916;27;20039;-80
2022/10/13 10:57:15;;;;;;;24.60;16.80;;;;;;;12.78;100.00;101609.09;5349058;27;20085;-80
2022/10/13 10:59:56;;;;;;;27.00;16.20;;;;;;;12.88;100.00;101609.97;5348658;27;20308;-80
2022/10/13 11:02:56;;;;;;;26.38;17.35;;;;;;;12.91;100.00;101615.03;5329575;27;20024;-80
2022/10/13 11:05:55;;;;;;;25.17;15.85;;;;;;;13.02;100.00;101606.03;5348487;27;20024;-80
2022/10/13 11:08:42;;;;;;;27.05;17.15;;;;;;;13.14;100.00;101591.50;5347396;27;20035;-80
2022/10/13 11:11:19;;;;;;;28.23;17.05;;;;;;;13.24;100.00;101602.25;5347754;27;20488;-80
2022/10/13 11:14:06;;;;;;;22.00;17.13;;;;;;;13.28;100.00;101597.44;5329018;27;20039;-80
2022/10/13 11:16:37;;;;;;;27.42;15.88;;;;;;;13.21;100.00;101597.16;5347633;27;20389;-80
2022/10/13 11:19:28;;;;;;;20.85;14.20;;;;;;;13.15;100.00;101589.69;5347246;27;20453;-80
2022/10/13 11:22:00;;;;;;;22.88;14.45;;;;;;;13.08;100.00;101597.44;5325768;27;20554;-80
2022/10/13 11:24:40;;;;;;;23.70;15.30;;;;;;;12.89;100.00;101598.28;5325918;28;20024;-80
2022/10/13 11:27:14;;;;;;;30.80;16.98;;;;;;;12.80;100.00;101596.44;5326093;28;20238;-80
2022/10/13 11:29:45;;;;;;;29.40;18.75;;;;;;;12.78;100.00;101588.53;5326422;28;20020;-80
2022/10/13 11:32:40;;;;;;;26.63;17.27;;;;;;;12.79;100.00;101584.03;5325943;28;20079;-81
2022/10/13 11:35:24;;;;;;;29.52;17.67;;;;;;;12.89;100.00;101576.84;5326069;28;20109;-82
2022/10/13 11:37:59;;;;;;;23.58;15.85;;;;;;;12.89;100.00;101584.06;5319864;27;20027;-80
2022/10/13 11:40:38;;;;;;;29.77;15.60;;;;;;;12.82;100.00;101573.03;5346715;27;20035;-81